Lehigh Valley International Airport
KABE : now visible

Airfield :











YOU CAN JOIN US ON...

 
LOGIN :

Register | Disclaimer

   EN    FR    IT 

 









Legend :    VFR   Marginal VFR   IFR   Intensive IFR   Very Intensive IFR
Visi :
Ceiling :
>= 8 km
>= 3000ft
5 to 8 km
1000 to 3000 ft
1500m to 5 km
500 to 1000 ft
800 to 1500m
200 to 500 ft
< 800m
< 200 ft
Symbols :   Thunderstorms  Fog  Heavy snow  Heavy precipitations  Wind > 20 kt






- Airport Elevation : 393 ft
- IATA code : ABE


KABE - Lehigh Valley International

CURRENT METAR :
  • 090151Z 01007KT 6SM BR FEW039 23/22 A3000 RMK AO2 SLP155 T02280217

EXPIRED METARs :
  • 090051Z AUTO 20003KT 9SM CLR 23/22 A2995 RMK AO2 SLP138 T02330217
  • 082351Z 00000KT 9SM CLR 24/22 A2997 RMK AO2 SLP144 60030 T02390217 10244 20228 56004
  • 082326Z 05004KT 8SM SCT008 24/22 A2997 RMK AO2 T02390217

TAF KABE
Valid from the 09 at 02:00 until the 10 at 00:00 UTC


090154Z 0902/0924 VRB04KT 6SM BR SCT008 BKN150
TEMPO 0903/0906 4SM BR
FM090600 VRB03KT 5SM BR SCT008 BKN035
TEMPO 0908/0912 2SM BR BKN008
FM091300 15005KT P6SM SCT050
KZNY FIR / North America



MET'MAP, your aeronautical weather chart ! - Copyright ORBIFLY December 2007 - Disclaimer

ORBIFLY MET'MAP TEAM :

Programming & Development : Alexandra Zaïnal
Concept & original design : Baudouin d'Aumeries
Assistance for programming : Marc-Olivier Méhu
Technical & hardware support : Manuel Goepfert

Contact : metmap@orbifly.com




SOURCES & CREDITS :

   NOAA       Earth
Advisory